Tropical Cyclones
[Index]
Main Index Home Page Stock Weather Photos Extreme Storms Discussion Storm News and Storm Chasing Reports Tropical Cyclones / Hurricanes / Typhoons Weather Data and Links Wild Fires / Bushfires Weather Observation Techniques Weather Picture Catalogue Tornado Pictures and Reports Stock Video Footage and DVDs for sale
Season 1983-1984 Tropical Cyclone TIM Track Map
Season 1983-1984 Summaries: [BoM-AU] [JTWC-AU] [JTWC-SIO] [JTWC-SPAC] [JTWC-SH]
<<- Previous TC | BoM 1983-1984 Season | Next TC ->>

click for intensity scale information  Lat/long Grid: Show Hide

 Date Labels: Show Hide

Bureau of Meteorology Tropical Cyclone Data

Name: TIM
Number: 649 / 198384_08

02 Jan 1984 06:00 UTC to 10 Jan 1984 06:00 UTC

    date/time    lat    long    hPa   cat  kts
1984-01-02 06   13.5   107.8   1005                     
1984-01-02 12   13.9   108.3   1005                     
1984-01-02 18   14.2   108.4   1004                     
1984-01-03 00   14.3   108.1   1004                     
1984-01-03 06   14.0   107.5   1003                     
1984-01-03 12   13.8   107.3   1001                     
1984-01-03 18   13.6   107.1   1000                     
1984-01-04 00   13.3   107.0    999                     
1984-01-04 06   13.0   106.9    999                     
1984-01-04 12   12.8   106.7    999                     
1984-01-04 16   12.8   106.2    996                     
1984-01-04 18   12.6   105.9    996                     
1984-01-05 00   12.4   105.6    996                     
1984-01-05 06   11.6   104.6    992    1                
1984-01-05 12   11.4   103.7    985    2                
1984-01-05 18   11.3   103.3    982    2                
1984-01-06 00   10.8   102.4    982    2                
1984-01-06 06   11.7   102.0    980    2                
1984-01-06 12   12.3   101.9    980    2                
1984-01-06 18   13.0   102.2    985    2                
1984-01-07 00   13.9   102.9    988    1                
1984-01-07 06   15.0   103.0    990    1                
1984-01-07 12   15.6   102.9    985    2                
1984-01-07 18   16.3   102.9    984    2                
1984-01-08 00   16.9   103.1    982    2                
1984-01-08 06   17.8   103.1    984    2                
1984-01-08 12   18.5   103.3    984    2                
1984-01-08 18   19.0   104.1    988    1                
1984-01-09 00   19.1   104.0    990    1                
1984-01-09 06   19.4   103.6    990    1                
1984-01-09 12   19.8   103.6    996                     
1984-01-09 18   19.9   103.7    996                     
1984-01-10 00   20.1   104.0   1000                     
1984-01-10 06   20.3   104.0   1000                     
Winds are 10-min average.

Tropical cyclone tracks developed by Michael Bath using data from the Bureau of Meteorology and Google Maps.


[Australian Severe Weather index] [Copyright Notice] [Email Contacts] [Search This Site] [Privacy Policy]
Document: tropical_cyclone_tim.htm Updated: 30 May 2013